createdAt,value
2022-11-16T00:02:44.330Z,12.82
2022-11-16T00:06:46.432Z,14.35
2022-11-16T00:10:47.925Z,13.10
2022-11-16T00:14:49.501Z,14.63
2022-11-16T00:18:59.633Z,13.23
2022-11-16T00:23:01.213Z,16.45
2022-11-16T00:27:02.972Z,11.80
2022-11-16T00:31:07.196Z,13.70
2022-11-16T00:35:08.807Z,12.35
2022-11-16T00:39:12.882Z,15.15
2022-11-16T00:43:14.406Z,14.98
2022-11-16T00:47:15.966Z,12.98
2022-11-16T00:51:17.539Z,11.75
2022-11-16T00:55:19.098Z,11.88
2022-11-16T00:59:21.354Z,13.02
2022-11-16T01:03:28.943Z,11.32
2022-11-16T01:07:30.484Z,14.43
2022-11-16T01:11:50.812Z,10.23
2022-11-16T01:15:52.828Z,13.63
2022-11-16T01:19:54.321Z,10.98
2022-11-16T01:23:57.172Z,11.63
2022-11-16T01:27:58.738Z,11.85
2022-11-16T01:32:12.133Z,12.73
2022-11-16T01:36:15.196Z,11.73
2022-11-16T01:40:48.565Z,12.55
2022-11-16T01:45:44.167Z,13.02
2022-11-16T01:55:48.623Z,11.32
2022-11-16T02:00:00.698Z,14.73
2022-11-16T02:04:15.823Z,12.70
2022-11-16T02:09:22.263Z,14.25
2022-11-16T02:13:39.629Z,13.55
2022-11-16T02:18:08.163Z,11.80
2022-11-16T02:22:54.704Z,13.57
2022-11-16T02:27:37.052Z,13.95
2022-11-16T02:32:17.114Z,12.32
2022-11-16T02:36:23.455Z,13.00
2022-11-16T02:40:30.648Z,13.07
2022-11-16T02:44:35.988Z,12.70
2022-11-16T02:48:42.720Z,13.43
2022-11-16T02:52:44.653Z,14.02
2022-11-16T02:57:05.097Z,13.90
2022-11-16T03:01:15.112Z,15.63
2022-11-16T03:05:33.059Z,13.93
2022-11-16T03:09:41.597Z,12.77
2022-11-16T03:13:44.794Z,12.63
2022-11-16T03:17:50.076Z,11.90
2022-11-16T03:21:58.017Z,10.93
2022-11-16T03:26:05.166Z,9.70
2022-11-16T03:30:15.180Z,12.18
2022-11-16T03:34:22.688Z,12.50
2022-11-16T03:38:27.112Z,13.38
2022-11-16T03:42:29.596Z,10.32
2022-11-16T03:46:31.986Z,12.52
2022-11-16T03:50:33.936Z,9.98
2022-11-16T03:54:36.598Z,11.43
2022-11-16T03:58:38.114Z,12.05
2022-11-16T04:02:39.834Z,10.15
2022-11-16T04:07:01.302Z,10.90
2022-11-16T04:11:22.662Z,9.50
2022-11-16T04:15:43.645Z,10.60
2022-11-16T04:20:03.710Z,9.80
2022-11-16T04:24:14.996Z,10.43
2022-11-16T04:28:21.712Z,11.30
2022-11-16T04:32:45.765Z,10.15
2022-11-16T04:37:06.312Z,9.73
2022-11-16T04:41:28.048Z,9.68
2022-11-16T04:45:49.595Z,10.18
2022-11-16T04:49:53.381Z,9.20
2022-11-16T04:53:56.165Z,9.25
2022-11-16T04:57:57.752Z,10.98
2022-11-16T05:02:09.957Z,8.45
2022-11-16T05:06:25.720Z,8.52
2022-11-16T05:10:28.008Z,7.55
2022-11-16T05:14:30.230Z,9.88
2022-11-16T05:18:33.252Z,8.20
2022-11-16T05:22:35.592Z,9.70
2022-11-16T05:26:38.622Z,9.43
2022-11-16T05:30:40.221Z,9.55
2022-11-16T05:40:41.485Z,9.52
2022-11-16T05:44:43.233Z,9.07
2022-11-16T05:48:45.191Z,8.93
2022-11-16T05:52:47.643Z,9.93
2022-11-16T05:56:50.702Z,10.25
2022-11-16T06:00:54.387Z,7.82
2022-11-16T06:04:57.078Z,10.32
2022-11-16T06:08:58.652Z,9.85
2022-11-16T06:13:01.854Z,10.13
2022-11-16T06:17:03.960Z,9.32
2022-11-16T06:21:07.080Z,9.88
2022-11-16T06:25:10.797Z,11.95
2022-11-16T06:29:16.140Z,11.00
2022-11-16T06:33:18.132Z,9.85
2022-11-16T06:37:19.879Z,12.05
2022-11-16T06:41:21.760Z,11.23
2022-11-16T06:45:26.216Z,11.63
2022-11-16T06:49:30.752Z,10.65
2022-11-16T06:53:36.306Z,10.85
2022-11-16T06:57:38.771Z,9.98
2022-11-16T07:01:40.821Z,9.43
2022-11-16T07:05:46.631Z,10.15
2022-11-16T07:09:51.304Z,10.88
2022-11-16T07:13:53.878Z,10.02
2022-11-16T07:17:55.755Z,11.43
2022-11-16T07:21:57.553Z,9.73
2022-11-16T07:26:00.820Z,11.00
2022-11-16T07:30:11.393Z,10.45
2022-11-16T07:34:16.337Z,10.48
2022-11-16T07:38:38.989Z,9.93
2022-11-16T07:42:41.940Z,9.88
2022-11-16T07:47:01.757Z,9.65
2022-11-16T07:51:12.436Z,11.30
2022-11-16T07:55:37.564Z,13.25
2022-11-16T07:59:41.790Z,9.73
2022-11-16T08:03:45.503Z,9.70
2022-11-16T08:08:14.261Z,9.98
2022-11-16T08:12:17.595Z,9.13
2022-11-16T08:16:21.304Z,9.52
2022-11-16T08:20:26.240Z,11.40
2022-11-16T08:24:29.552Z,12.02
2022-11-16T08:28:59.121Z,10.90
2022-11-16T08:33:31.052Z,11.27
2022-11-16T08:37:34.172Z,10.40
2022-11-16T08:41:44.306Z,11.02
2022-11-16T08:45:49.903Z,9.70
2022-11-16T08:50:22.990Z,10.57
2022-11-16T08:54:32.802Z,10.07
2022-11-16T08:59:02.043Z,10.02
2022-11-16T09:03:03.935Z,11.40
2022-11-16T09:07:34.655Z,10.38
2022-11-16T09:11:36.880Z,13.20
2022-11-16T09:21:06.680Z,9.27
2022-11-16T09:25:09.870Z,8.82
2022-11-16T09:29:13.654Z,11.05
2022-11-16T09:33:15.317Z,9.00
2022-11-16T09:37:17.017Z,8.93
2022-11-16T09:41:53.507Z,9.68
2022-11-16T09:46:19.547Z,11.13
2022-11-16T09:50:32.716Z,9.30
2022-11-16T09:55:03.318Z,10.77
2022-11-16T09:59:16.675Z,9.63
2022-11-16T10:03:19.733Z,9.48
2022-11-16T10:07:41.783Z,6.95
2022-11-16T10:11:52.808Z,9.07
2022-11-16T10:16:13.541Z,8.90
2022-11-16T10:20:38.789Z,9.90
2022-11-16T10:24:53.759Z,7.22
2022-11-16T10:29:19.289Z,6.20
2022-11-16T10:33:22.779Z,7.40
2022-11-16T10:37:30.312Z,6.78
2022-11-16T10:41:38.165Z,7.50
2022-11-16T10:45:42.880Z,6.53
2022-11-16T10:50:04.294Z,7.30
2022-11-16T10:54:13.893Z,7.15
2022-11-16T10:58:16.074Z,6.32
2022-11-16T11:02:35.486Z,6.53
2022-11-16T11:06:40.165Z,6.38
2022-11-16T11:10:42.333Z,6.07
2022-11-16T11:15:11.713Z,6.88
2022-11-16T11:19:26.194Z,5.53
2022-11-16T11:23:54.399Z,4.47
2022-11-16T11:28:15.003Z,4.97
2022-11-16T11:32:23.783Z,5.00
2022-11-16T11:36:40.478Z,4.05
2022-11-16T11:40:57.932Z,5.00
2022-11-16T11:45:06.630Z,4.97
2022-11-16T11:49:19.404Z,5.25
2022-11-16T11:53:43.534Z,5.35
2022-11-16T11:57:47.923Z,5.68
2022-11-16T12:02:04.963Z,5.35
2022-11-16T12:06:11.245Z,5.20
2022-11-16T12:10:29.091Z,6.07
2022-11-16T12:14:58.368Z,5.03
2022-11-16T12:19:16.763Z,5.20
2022-11-16T12:24:10.371Z,5.10
2022-11-16T12:28:30.507Z,5.82
2022-11-16T12:32:47.799Z,5.07
2022-11-16T12:37:03.768Z,5.75
2022-11-16T12:41:26.618Z,4.95
2022-11-16T12:45:52.837Z,5.47
2022-11-16T12:50:15.814Z,5.65
2022-11-16T12:54:36.332Z,5.60
2022-11-16T12:58:43.780Z,4.85
2022-11-16T13:03:00.041Z,4.38
2022-11-16T13:07:10.425Z,4.65
2022-11-16T13:11:22.764Z,4.40
2022-11-16T13:15:34.775Z,4.82
2022-11-16T13:19:44.172Z,5.22
2022-11-16T13:24:20.101Z,5.60
2022-11-16T13:28:37.149Z,5.55
2022-11-16T13:33:03.740Z,6.68
2022-11-16T13:37:36.442Z,5.57
2022-11-16T13:41:40.490Z,6.15
2022-11-16T13:45:55.945Z,6.88
2022-11-16T13:50:00.182Z,8.68
2022-11-16T13:58:35.464Z,9.07
2022-11-16T14:02:43.430Z,10.20
2022-11-16T14:06:55.407Z,9.32
2022-11-16T14:11:02.852Z,8.63
2022-11-16T14:15:15.867Z,8.77
2022-11-16T14:19:51.889Z,8.45
2022-11-16T14:24:21.390Z,8.98
2022-11-16T14:28:47.192Z,9.93
2022-11-16T14:32:54.742Z,8.55
2022-11-16T14:36:58.282Z,8.10
2022-11-16T14:41:06.479Z,10.95
2022-11-16T14:45:22.651Z,13.30
2022-11-16T14:49:25.988Z,12.50
2022-11-16T14:53:29.278Z,9.93
2022-11-16T14:57:31.096Z,13.35
2022-11-16T15:01:39.720Z,14.73
2022-11-16T15:05:41.415Z,14.80
2022-11-16T15:10:01.363Z,11.68
2022-11-16T15:14:02.970Z,12.00
2022-11-16T15:18:07.273Z,11.73
2022-11-16T15:22:16.883Z,12.25
2022-11-16T15:26:21.479Z,11.57
2022-11-16T15:30:25.874Z,12.07
2022-11-16T15:34:27.746Z,15.45
2022-11-16T15:38:35.323Z,14.82
2022-11-16T15:42:39.309Z,13.65
2022-11-16T15:46:42.912Z,15.48
2022-11-16T15:51:05.059Z,12.35
2022-11-16T15:55:20.790Z,16.17
2022-11-16T15:59:28.278Z,13.98
2022-11-16T16:03:35.012Z,12.32
2022-11-16T16:07:41.445Z,13.73
2022-11-16T16:15:44.519Z,18.40
2022-11-16T16:20:06.310Z,13.00
2022-11-16T16:24:11.666Z,15.55
2022-11-16T16:28:15.589Z,15.52
2022-11-16T16:32:29.370Z,29.67
2022-11-16T16:36:31.207Z,16.27
2022-11-16T16:40:32.794Z,15.27
2022-11-16T16:44:34.615Z,12.90
2022-11-16T16:48:39.098Z,15.80
2022-11-16T16:52:45.514Z,14.90
2022-11-16T16:56:47.526Z,17.10
2022-11-16T17:00:49.307Z,16.13
2022-11-16T17:04:51.244Z,15.98
2022-11-16T17:08:53.208Z,17.20
2022-11-16T17:12:57.846Z,15.57
2022-11-16T17:17:02.135Z,16.73
2022-11-16T17:21:05.622Z,15.73
2022-11-16T17:25:10.512Z,17.30
2022-11-16T17:29:17.566Z,16.52
2022-11-16T17:33:19.122Z,16.45
2022-11-16T17:37:20.695Z,17.08
2022-11-16T17:41:26.127Z,16.60
2022-11-16T17:45:27.654Z,16.58
2022-11-16T17:49:32.774Z,15.75
2022-11-16T17:53:36.042Z,17.08
2022-11-16T17:57:38.175Z,14.43
2022-11-16T18:01:39.856Z,12.20
2022-11-16T18:05:41.623Z,13.85
2022-11-16T18:09:43.124Z,15.30
2022-11-16T18:13:45.218Z,16.83
2022-11-16T18:17:46.953Z,15.73
2022-11-16T18:21:48.937Z,18.88
2022-11-16T18:25:53.939Z,16.52
2022-11-16T18:29:55.603Z,16.08
2022-11-16T18:33:57.213Z,16.20
2022-11-16T18:37:58.718Z,13.75
2022-11-16T18:42:00.489Z,24.80
2022-11-16T18:46:02.065Z,13.40
2022-11-16T18:50:16.352Z,12.10
2022-11-16T18:54:20.696Z,17.27
2022-11-16T18:58:48.859Z,10.98
2022-11-16T19:02:44.696Z,13.95
2022-11-16T19:06:46.564Z,10.45
2022-11-16T19:10:48.112Z,9.85
2022-11-16T19:14:49.642Z,8.18
2022-11-16T19:18:51.566Z,11.30
2022-11-16T19:22:53.337Z,13.95
2022-11-16T19:26:54.878Z,7.35
2022-11-16T19:30:56.536Z,6.07
2022-11-16T19:34:58.253Z,7.03
2022-11-16T19:38:59.882Z,6.70
2022-11-16T19:43:01.513Z,7.40
2022-11-16T19:47:03.105Z,7.53
2022-11-16T19:51:10.562Z,7.80
2022-11-16T19:55:12.166Z,6.40
2022-11-16T19:59:14.020Z,6.60
2022-11-16T20:03:15.589Z,6.15
2022-11-16T20:07:18.027Z,5.18
2022-11-16T20:11:22.077Z,6.20
2022-11-16T20:15:25.406Z,6.35
2022-11-16T20:19:27.254Z,5.95
2022-11-16T20:23:29.155Z,6.93
2022-11-16T20:27:33.397Z,6.95
2022-11-16T20:31:34.937Z,5.78
2022-11-16T20:35:36.486Z,5.50
2022-11-16T20:39:38.025Z,5.90
2022-11-16T20:43:40.559Z,5.70
2022-11-16T20:47:42.089Z,5.32
2022-11-16T20:51:46.058Z,4.28
2022-11-16T20:55:49.118Z,5.38
2022-11-16T20:59:50.655Z,4.63
2022-11-16T21:03:54.949Z,4.28
2022-11-16T21:07:59.430Z,5.15
2022-11-16T21:12:19.620Z,5.07
2022-11-16T21:16:21.322Z,5.20
2022-11-16T21:20:27.920Z,5.28
2022-11-16T21:24:32.021Z,5.13
2022-11-16T21:28:34.132Z,5.20
2022-11-16T21:32:35.698Z,5.72
2022-11-16T21:36:37.421Z,5.75
2022-11-16T21:40:41.403Z,5.45
2022-11-16T21:45:16.648Z,5.15
2022-11-16T21:49:16.870Z,5.38
2022-11-16T21:53:18.734Z,5.35
2022-11-16T21:57:20.465Z,5.43
2022-11-16T22:01:23.681Z,4.68
2022-11-16T22:05:44.329Z,5.30
2022-11-16T22:09:46.816Z,5.70
2022-11-16T22:13:50.782Z,5.53
2022-11-16T22:17:53.345Z,5.43
2022-11-16T22:21:55.748Z,6.18
2022-11-16T22:26:04.018Z,4.63
2022-11-16T22:30:07.124Z,5.90
2022-11-16T22:34:08.811Z,5.70
2022-11-16T22:38:10.994Z,5.95
2022-11-16T22:42:12.478Z,6.43
2022-11-16T22:46:13.985Z,4.88
2022-11-16T22:50:15.542Z,4.28
2022-11-16T22:54:17.108Z,5.88
2022-11-16T22:58:18.572Z,5.50
2022-11-16T23:02:20.177Z,6.90
2022-11-16T23:06:21.900Z,6.10
2022-11-16T23:10:23.547Z,5.35
2022-11-16T23:14:43.651Z,5.72
2022-11-16T23:18:45.738Z,5.07
2022-11-16T23:23:05.848Z,5.30
2022-11-16T23:27:29.861Z,6.50
2022-11-16T23:31:31.340Z,5.88
2022-11-16T23:35:33.228Z,5.47
2022-11-16T23:39:34.774Z,5.78
2022-11-16T23:43:54.747Z,5.47
2022-11-16T23:47:56.373Z,4.82
2022-11-16T23:51:58.208Z,5.90
2022-11-16T23:56:05.743Z,5.88
